Watervliet, Michigan
Current Conditions -  °F | °C
As of 11:53 PM on Saturday 20 Dec 2014 (Local Time) from KBEH Reporting Station
Overcast Overcast  
Wind Chill: 25°   Ceiling: 6000
Heat Index: 31°   Visibility: 7mi
Dew Point: 26°   Wind: 6mph
Humidity: 82%   Direction: 200°SSW
Pressure: 30.27"   Gusts: NA
Location:  42.19°N, 86.26°W
Report Text: KBEH 210453Z AUTO 20005KT 7SM OVC060 M01/M03 A3027 RMK AO2 SLP258 T10061033 400001039
Loading
Personal Weather Stations






























Interactive Weather Map New forecast layout! Learn more

10-Day Weather Forecast

Advertisements
Track Severe Weather on mobile